Seattle, WA

8:42 AM PDT on July 23, 2016 (GMT -0700)
Belltown | | Change Station

Elev 98 ft 47.61 °N, 122.35 °W | Updated 14 minutes ago

Overcast
Overcast
60.4 °F
Feels Like 60.4 °F
N
4.2
Wind Variable Wind from North

Today
High -- | Low -- °F
--% Chance of Precip.
Yesterday
High -- | Low -- °F
Precip. -- in
Pressure 30.27 in
Visibility 10.0 miles
Clouds Scattered Clouds 1700 ft
Overcast 2600 ft
Dew Point 56 °F
Humidity 84%
Rainfall 0.00 in
Snow Depth Not available.
5:36 AM 8:54 PM
Waning Gibbous, 84% visible
METAR KBFI 231453Z 06004KT 10SM SCT017 OVC026 17/13 A3027 RMK AO2 SLP249 T01670128 53003
Pressure 30.27 in
Visibility 10.0 miles
Clouds Scattered Clouds 1700 ft
Overcast 2600 ft
Dew Point 56 °F
Humidity 84%
Rainfall 0.00 in
Snow Depth Not available.
5:36 AM 8:54 PM
Waning Gibbous, 84% visible
METAR KBFI 231453Z 06004KT 10SM SCT017 OVC026 17/13 A3027 RMK AO2 SLP249 T01670128 53003

10-Day Weather Forecast

Almanac

Astronomy

Jul. 23, 2016 Rise Set
Actual Time
Civil Twilight
Nautical Twilight
Astronomical Twilight
Moon
Length of Visible Light
Length of Day
Tomorrow will be .
, % of the Moon is Illuminated

Today's Extremes

State Highs State Lows

Community

WunderPhotos

Upload Photos

1,926,848 photos uploaded!

WunderBlog® & News

Nearby

Air Quality

  Air Quality AQ Index Pollutant
Not available.

Snow Depth

Station Depth Elevation

Earthquake Activity

City Distance Mag. Time & Date
Minimum magnitude displayed is 2.5.

Coastal Water Temperatures

Place Temperature

Stations

Nearby Weather Stations

Station Location Temp. Windchill Dew Point Humidity Wind Precip. Elev Updated Type
                   

Watches & Warnings

There are currently no watches in effect.